createdAt,value
2022-11-13T00:02:10.232Z,6.53
2022-11-13T00:04:37.892Z,6.53
2022-11-13T00:07:05.604Z,6.51
2022-11-13T00:09:33.315Z,6.50
2022-11-13T00:12:01.031Z,6.47
2022-11-13T00:14:30.058Z,6.44
2022-11-13T00:16:57.691Z,6.41
2022-11-13T00:19:25.413Z,6.38
2022-11-13T00:21:55.017Z,6.34
2022-11-13T00:24:22.673Z,6.29
2022-11-13T00:26:50.372Z,6.26
2022-11-13T00:29:18.450Z,6.21
2022-11-13T00:31:46.068Z,6.18
2022-11-13T00:34:40.989Z,6.15
2022-11-13T00:37:01.860Z,6.11
2022-11-13T00:39:29.457Z,6.09
2022-11-13T00:41:57.036Z,6.08
2022-11-13T00:44:24.725Z,6.08
2022-11-13T00:46:52.329Z,6.06
2022-11-13T00:49:25.280Z,6.05
2022-11-13T00:51:52.922Z,6.02
2022-11-13T00:54:20.537Z,6.03
2022-11-13T00:56:48.139Z,6.04
2022-11-13T00:59:15.818Z,6.07
2022-11-13T01:01:43.729Z,6.09
2022-11-13T01:04:11.331Z,6.12
2022-11-13T01:06:38.993Z,6.16
2022-11-13T01:09:06.588Z,6.24
2022-11-13T01:11:34.243Z,6.30
2022-11-13T01:14:01.896Z,6.36
2022-11-13T01:16:29.464Z,6.40
2022-11-13T01:18:57.034Z,6.41
2022-11-13T01:21:24.646Z,6.42
2022-11-13T01:23:52.191Z,6.42
2022-11-13T01:26:20.795Z,6.41
2022-11-13T01:28:48.415Z,6.40
2022-11-13T01:31:16.805Z,6.38
2022-11-13T01:33:44.819Z,6.36
2022-11-13T01:36:12.411Z,6.31
2022-11-13T01:38:42.875Z,6.29
2022-11-13T01:41:10.455Z,6.25
2022-11-13T01:43:38.046Z,6.20
2022-11-13T01:46:05.621Z,6.17
2022-11-13T01:48:33.183Z,6.13
2022-11-13T01:51:02.507Z,6.06
2022-11-13T01:53:30.095Z,5.98
2022-11-13T01:55:58.072Z,5.90
2022-11-13T01:58:25.894Z,5.85
2022-11-13T02:00:53.648Z,5.81
2022-11-13T02:03:21.537Z,5.81
2022-11-13T02:05:49.146Z,5.80
2022-11-13T02:08:16.712Z,5.81
2022-11-13T02:10:44.243Z,5.80
2022-11-13T02:13:11.882Z,5.78
2022-11-13T02:15:40.997Z,5.75
2022-11-13T02:18:08.896Z,5.70
2022-11-13T02:20:36.517Z,5.67
2022-11-13T02:23:04.856Z,5.62
2022-11-13T02:25:32.385Z,5.58
2022-11-13T02:28:00.277Z,5.54
2022-11-13T02:30:27.921Z,5.50
2022-11-13T02:32:55.598Z,5.47
2022-11-13T02:35:23.183Z,5.44
2022-11-13T02:37:50.767Z,5.41
2022-11-13T02:40:18.690Z,5.37
2022-11-13T02:42:46.313Z,5.35
2022-11-13T02:45:13.981Z,5.32
2022-11-13T02:47:41.524Z,5.30
2022-11-13T02:50:09.180Z,5.29
2022-11-13T02:52:36.952Z,5.26
2022-11-13T02:55:04.536Z,5.24
2022-11-13T02:57:32.114Z,5.21
2022-11-13T02:59:59.679Z,5.19
2022-11-13T03:02:27.627Z,5.16
2022-11-13T03:05:12.903Z,5.14
2022-11-13T03:07:41.052Z,5.10
2022-11-13T03:10:08.646Z,5.06
2022-11-13T03:12:36.200Z,5.03
2022-11-13T03:15:05.610Z,5.02
2022-11-13T03:17:33.242Z,4.99
2022-11-13T03:20:00.787Z,4.95
2022-11-13T03:22:28.769Z,4.92
2022-11-13T03:24:56.324Z,4.90
2022-11-13T03:27:26.845Z,4.88
2022-11-13T03:29:54.412Z,4.86
2022-11-13T03:32:21.998Z,4.83
2022-11-13T03:34:49.530Z,4.80
2022-11-13T03:37:17.086Z,4.77
2022-11-13T03:39:46.090Z,4.73
2022-11-13T03:42:13.628Z,4.72
2022-11-13T03:44:41.614Z,4.70
2022-11-13T03:47:09.217Z,4.66
2022-11-13T03:49:36.778Z,4.61
2022-11-13T03:52:04.647Z,4.55
2022-11-13T03:54:32.233Z,4.51
2022-11-13T03:56:59.799Z,4.46
2022-11-13T03:59:27.337Z,4.44
2022-11-13T04:01:54.972Z,4.42
2022-11-13T04:04:22.567Z,4.40
2022-11-13T04:06:50.638Z,4.36
2022-11-13T04:09:18.264Z,4.34
2022-11-13T04:11:45.771Z,4.31
2022-11-13T04:14:13.294Z,4.28
2022-11-13T04:16:41.267Z,4.28
2022-11-13T04:19:08.840Z,4.26
2022-11-13T04:21:36.364Z,4.29
2022-11-13T04:24:03.942Z,4.29
2022-11-13T04:26:31.507Z,4.30
2022-11-13T04:29:04.598Z,4.31
2022-11-13T04:31:32.139Z,4.31
2022-11-13T04:33:59.728Z,4.31
2022-11-13T04:36:27.284Z,4.32
2022-11-13T04:38:54.809Z,4.32
2022-11-13T04:41:40.324Z,4.34
2022-11-13T04:44:07.870Z,4.35
2022-11-13T04:46:35.398Z,4.37
2022-11-13T04:49:03.402Z,4.39
2022-11-13T04:51:31.183Z,4.42
2022-11-13T04:53:59.126Z,4.43
2022-11-13T04:56:28.933Z,4.44
2022-11-13T04:58:56.505Z,4.44
2022-11-13T05:01:24.073Z,4.46
2022-11-13T05:03:51.674Z,4.45
2022-11-13T05:06:19.581Z,4.46
2022-11-13T05:08:48.330Z,4.46
2022-11-13T05:11:15.904Z,4.45
2022-11-13T05:13:43.457Z,4.46
2022-11-13T05:16:11.016Z,4.44
2022-11-13T05:18:39.017Z,4.42
2022-11-13T05:21:07.308Z,4.40
2022-11-13T05:23:34.870Z,4.39
2022-11-13T05:26:02.474Z,4.36
2022-11-13T05:28:30.317Z,4.36
2022-11-13T05:30:58.479Z,4.34
2022-11-13T05:33:26.483Z,4.32
2022-11-13T05:35:54.019Z,4.29
2022-11-13T05:38:21.593Z,4.27
2022-11-13T05:40:49.175Z,4.24
2022-11-13T05:43:17.113Z,4.21
2022-11-13T05:45:46.370Z,4.18
2022-11-13T05:48:13.972Z,4.15
2022-11-13T05:50:41.540Z,4.14
2022-11-13T05:53:09.066Z,4.12
2022-11-13T05:55:37.416Z,4.07
2022-11-13T05:58:05.041Z,4.00
2022-11-13T06:00:32.630Z,3.95
2022-11-13T06:03:00.214Z,3.91
2022-11-13T06:05:27.771Z,3.90
2022-11-13T06:07:55.670Z,3.89
2022-11-13T06:10:24.619Z,3.89
2022-11-13T06:12:52.172Z,3.86
2022-11-13T06:15:19.745Z,3.83
2022-11-13T06:17:47.641Z,3.81
2022-11-13T06:20:15.571Z,3.79
2022-11-13T06:22:44.747Z,3.78
2022-11-13T06:25:12.352Z,3.75
2022-11-13T06:27:39.869Z,3.74
2022-11-13T06:30:07.454Z,3.72
2022-11-13T06:32:35.435Z,3.71
2022-11-13T06:35:03.988Z,3.69
2022-11-13T06:37:34.587Z,3.70
2022-11-13T06:40:02.475Z,3.71
2022-11-13T06:42:30.034Z,3.72
2022-11-13T06:44:57.960Z,3.73
2022-11-13T06:47:26.169Z,3.74
2022-11-13T06:49:53.765Z,3.75
2022-11-13T06:52:21.334Z,3.77
2022-11-13T06:54:48.904Z,3.78
2022-11-13T06:57:16.571Z,3.80
2022-11-13T06:59:44.741Z,3.82
2022-11-13T07:02:12.771Z,3.82
2022-11-13T07:04:40.334Z,3.81
2022-11-13T07:07:08.036Z,3.80
2022-11-13T07:09:36.012Z,3.81
2022-11-13T07:12:03.619Z,3.82
2022-11-13T07:14:31.218Z,3.84
2022-11-13T07:17:09.086Z,3.89
2022-11-13T07:19:38.209Z,3.94
2022-11-13T07:22:05.878Z,4.00
2022-11-13T07:24:33.474Z,4.02
2022-11-13T07:27:01.052Z,4.06
2022-11-13T07:29:28.672Z,4.10
2022-11-13T07:31:56.677Z,4.14
2022-11-13T07:34:24.290Z,4.20
2022-11-13T07:36:51.912Z,4.27
2022-11-13T07:39:19.500Z,4.36
2022-11-13T07:41:47.089Z,4.45
2022-11-13T07:44:40.133Z,4.54
2022-11-13T07:47:05.812Z,4.60
2022-11-13T07:49:33.450Z,4.65
2022-11-13T07:52:01.082Z,4.70
2022-11-13T07:54:29.097Z,4.80
2022-11-13T07:56:56.744Z,4.86
2022-11-13T07:59:25.868Z,4.90
2022-11-13T08:01:53.549Z,4.92
2022-11-13T08:04:21.684Z,4.94
2022-11-13T08:06:49.779Z,4.97
2022-11-13T08:09:17.502Z,4.98
2022-11-13T08:11:47.387Z,4.99
2022-11-13T08:14:14.979Z,5.00
2022-11-13T08:16:42.661Z,5.04
2022-11-13T08:19:10.727Z,5.11
2022-11-13T08:21:38.464Z,5.20
2022-11-13T08:24:07.533Z,5.29
2022-11-13T08:26:35.554Z,5.40
2022-11-13T08:29:03.307Z,5.54
2022-11-13T08:31:32.494Z,5.66
2022-11-13T08:34:00.343Z,5.73
2022-11-13T08:36:27.992Z,5.80
2022-11-13T08:38:55.646Z,5.86
2022-11-13T08:41:23.402Z,5.90
2022-11-13T08:43:51.380Z,5.94
2022-11-13T08:46:19.064Z,6.04
2022-11-13T08:48:48.944Z,6.13
2022-11-13T08:51:16.800Z,6.18
2022-11-13T08:53:44.541Z,6.27
2022-11-13T08:56:12.421Z,6.32
2022-11-13T08:58:40.191Z,6.38
2022-11-13T09:01:10.678Z,6.45
2022-11-13T09:03:38.720Z,6.54
2022-11-13T09:06:06.504Z,6.59
2022-11-13T09:08:34.388Z,6.66
2022-11-13T09:11:02.252Z,6.72
2022-11-13T09:13:31.491Z,6.80
2022-11-13T09:15:59.299Z,6.90
2022-11-13T09:18:27.464Z,7.03
2022-11-13T09:20:55.772Z,7.18
2022-11-13T09:23:23.469Z,7.35
2022-11-13T09:25:52.335Z,7.49
2022-11-13T09:28:20.064Z,7.65
2022-11-13T09:30:47.856Z,7.79
2022-11-13T09:33:16.550Z,7.94
2022-11-13T09:35:44.444Z,8.08
2022-11-13T09:38:14.656Z,8.22
2022-11-13T09:40:43.097Z,8.39
2022-11-13T09:43:10.931Z,8.57
2022-11-13T09:45:38.789Z,8.78
2022-11-13T09:48:06.722Z,9.08
2022-11-13T09:50:36.365Z,9.43
2022-11-13T09:53:04.180Z,9.82
2022-11-13T09:55:32.455Z,10.31
2022-11-13T09:58:01.096Z,10.94
2022-11-13T10:00:28.942Z,11.90
2022-11-13T10:02:59.049Z,13.07
2022-11-13T10:05:26.928Z,14.29
2022-11-13T10:07:54.667Z,15.36
2022-11-13T10:10:22.646Z,16.02
2022-11-13T10:12:50.446Z,16.42
2022-11-13T10:15:19.687Z,16.62
2022-11-13T10:17:48.063Z,16.82
2022-11-13T10:20:16.886Z,16.78
2022-11-13T10:22:45.400Z,16.58
2022-11-13T10:25:13.546Z,16.30
2022-11-13T10:27:43.804Z,15.97
2022-11-13T10:30:12.379Z,15.70
2022-11-13T10:32:40.341Z,15.49
2022-11-13T10:35:08.658Z,15.42
2022-11-13T10:37:36.465Z,15.45
2022-11-13T10:40:05.909Z,15.46
2022-11-13T10:42:35.809Z,15.49
2022-11-13T10:45:06.997Z,15.62
2022-11-13T10:48:02.621Z,15.73
2022-11-13T10:50:26.790Z,16.17
2022-11-13T10:52:54.721Z,16.78
2022-11-13T10:55:22.591Z,17.21
2022-11-13T10:57:56.167Z,17.38
2022-11-13T11:00:24.652Z,17.34
2022-11-13T11:02:55.353Z,17.17
2022-11-13T11:05:23.337Z,16.97
2022-11-13T11:07:51.983Z,16.76
2022-11-13T11:10:19.741Z,16.58
2022-11-13T11:12:47.531Z,16.38
2022-11-13T11:15:17.179Z,16.17
2022-11-13T11:17:45.089Z,16.06
2022-11-13T11:20:13.627Z,15.92
2022-11-13T11:22:41.982Z,15.81
2022-11-13T11:25:10.421Z,15.71
2022-11-13T11:27:40.295Z,15.59
2022-11-13T11:30:08.225Z,15.55
2022-11-13T11:32:36.124Z,15.59
2022-11-13T11:35:03.992Z,15.69
2022-11-13T11:37:31.920Z,15.82
2022-11-13T11:39:59.751Z,15.91
2022-11-13T11:42:27.480Z,15.97
2022-11-13T11:44:56.157Z,16.00
2022-11-13T11:47:24.156Z,16.04
2022-11-13T11:49:52.024Z,16.07
2022-11-13T11:52:19.972Z,16.13
2022-11-13T11:54:47.797Z,16.34
2022-11-13T11:57:15.936Z,16.49
2022-11-13T11:59:43.923Z,16.50
2022-11-13T12:02:11.736Z,16.41
2022-11-13T12:04:41.393Z,16.29
2022-11-13T12:07:09.668Z,16.20
2022-11-13T12:09:38.155Z,16.14
2022-11-13T12:12:06.067Z,16.08
2022-11-13T12:14:34.098Z,16.04
2022-11-13T12:17:01.940Z,16.06
2022-11-13T12:19:29.947Z,16.08
2022-11-13T12:21:58.297Z,16.08
2022-11-13T12:24:26.257Z,16.10
2022-11-13T12:26:54.072Z,16.09
2022-11-13T12:29:25.313Z,16.03
2022-11-13T12:31:53.230Z,15.97
2022-11-13T12:34:20.945Z,15.94
2022-11-13T12:36:48.980Z,15.91
2022-11-13T12:39:16.837Z,15.90
2022-11-13T12:41:45.114Z,15.92
2022-11-13T12:44:13.027Z,15.95
2022-11-13T12:46:41.412Z,15.96
2022-11-13T12:49:09.214Z,15.99
2022-11-13T12:51:37.636Z,16.05
2022-11-13T12:54:06.054Z,16.16
2022-11-13T12:56:33.969Z,16.26
2022-11-13T12:59:32.086Z,16.31
2022-11-13T13:01:50.270Z,16.36
2022-11-13T13:04:18.276Z,16.47
2022-11-13T13:06:46.391Z,16.63
2022-11-13T13:09:14.839Z,16.77
2022-11-13T13:11:42.749Z,16.94
2022-11-13T13:14:10.634Z,17.10
2022-11-13T13:16:39.735Z,17.17
2022-11-13T13:19:07.780Z,17.25
2022-11-13T13:21:35.972Z,17.31
2022-11-13T13:24:03.857Z,17.41
2022-11-13T13:26:31.637Z,17.54
2022-11-13T13:29:02.831Z,17.59
2022-11-13T13:31:30.760Z,17.57
2022-11-13T13:33:59.537Z,17.46
2022-11-13T13:36:27.410Z,17.33
2022-11-13T13:38:55.295Z,17.20
2022-11-13T13:41:23.345Z,17.16
2022-11-13T13:43:51.245Z,17.22
2022-11-13T13:46:20.417Z,17.34
2022-11-13T13:48:48.482Z,17.41
2022-11-13T13:51:16.389Z,17.39
2022-11-13T13:53:45.454Z,17.37
2022-11-13T13:56:13.785Z,17.41
2022-11-13T13:58:41.978Z,17.51
2022-11-13T14:01:18.958Z,17.71
2022-11-13T14:03:47.383Z,17.93
2022-11-13T14:06:15.150Z,18.10
2022-11-13T14:08:43.561Z,18.20
2022-11-13T14:11:11.693Z,18.13
2022-11-13T14:13:39.462Z,18.04
2022-11-13T14:16:07.404Z,18.11
2022-11-13T14:18:35.755Z,18.37
2022-11-13T14:21:03.604Z,18.72
2022-11-13T14:23:31.398Z,19.12
2022-11-13T14:25:59.329Z,19.42
2022-11-13T14:28:28.165Z,19.67
2022-11-13T14:30:56.082Z,19.86
2022-11-13T14:33:24.460Z,19.70
2022-11-13T14:35:52.480Z,19.51
2022-11-13T14:38:20.643Z,19.51
2022-11-13T14:40:49.255Z,19.75
2022-11-13T14:43:17.453Z,19.64
2022-11-13T14:45:45.432Z,19.09
2022-11-13T14:48:13.511Z,18.44
2022-11-13T14:50:41.380Z,17.81
2022-11-13T14:53:10.132Z,17.27
2022-11-13T14:55:38.258Z,16.80
2022-11-13T14:58:07.080Z,16.38
2022-11-13T15:00:35.038Z,15.99
2022-11-13T15:03:03.251Z,15.63
2022-11-13T15:05:33.608Z,15.31
2022-11-13T15:08:01.527Z,15.03
2022-11-13T15:10:30.192Z,14.76
2022-11-13T15:12:58.101Z,14.51
2022-11-13T15:15:25.974Z,14.28
2022-11-13T15:17:54.132Z,14.10
2022-11-13T15:20:22.395Z,13.95
2022-11-13T15:22:51.019Z,13.81
2022-11-13T15:25:18.870Z,13.68
2022-11-13T15:27:46.814Z,13.52
2022-11-13T15:30:14.693Z,13.37
2022-11-13T15:32:42.702Z,13.24
2022-11-13T15:35:11.120Z,13.10
2022-11-13T15:37:39.333Z,12.98
2022-11-13T15:40:07.252Z,12.87
2022-11-13T15:42:36.245Z,12.77
2022-11-13T15:45:06.172Z,12.65
2022-11-13T15:47:35.299Z,12.55
2022-11-13T15:50:20.438Z,12.43
2022-11-13T15:52:48.504Z,12.30
2022-11-13T15:55:16.349Z,12.19
2022-11-13T15:57:44.538Z,12.09
2022-11-13T16:00:12.669Z,11.98
2022-11-13T16:02:41.541Z,11.89
2022-11-13T16:05:12.240Z,11.78
2022-11-13T16:07:42.287Z,11.64
2022-11-13T16:10:10.774Z,11.51
2022-11-13T16:12:38.593Z,11.41
2022-11-13T16:15:06.529Z,11.30
2022-11-13T16:17:34.433Z,11.20
2022-11-13T16:20:02.275Z,11.12
2022-11-13T16:22:30.674Z,11.03
2022-11-13T16:24:58.991Z,10.92
2022-11-13T16:27:26.896Z,10.79
2022-11-13T16:29:59.105Z,10.69
2022-11-13T16:32:30.180Z,10.58
2022-11-13T16:34:58.298Z,10.46
2022-11-13T16:37:26.167Z,10.37
2022-11-13T16:39:54.031Z,10.29
2022-11-13T16:42:22.469Z,10.19
2022-11-13T16:44:51.278Z,10.08
2022-11-13T16:47:19.632Z,9.97
2022-11-13T16:49:47.588Z,9.86
2022-11-13T16:52:15.580Z,9.78
2022-11-13T16:54:43.955Z,9.72
2022-11-13T16:57:11.957Z,9.70
2022-11-13T16:59:39.657Z,9.71
2022-11-13T17:02:07.597Z,9.69
2022-11-13T17:04:35.625Z,9.62
2022-11-13T17:07:03.947Z,9.53
2022-11-13T17:09:31.919Z,9.46
2022-11-13T17:12:00.287Z,9.38
2022-11-13T17:14:28.101Z,9.28
2022-11-13T17:16:55.944Z,9.22
2022-11-13T17:19:23.987Z,9.13
2022-11-13T17:21:51.695Z,9.02
2022-11-13T17:24:19.870Z,8.92
2022-11-13T17:26:47.899Z,8.81
2022-11-13T17:29:16.065Z,8.71
2022-11-13T17:31:43.827Z,8.60
2022-11-13T17:34:11.711Z,8.51
2022-11-13T17:36:40.070Z,8.44
2022-11-13T17:39:08.001Z,8.37
2022-11-13T17:41:37.607Z,8.29
2022-11-13T17:44:05.420Z,8.22
2022-11-13T17:46:33.403Z,8.17
2022-11-13T17:49:02.307Z,8.12
2022-11-13T17:51:30.607Z,8.08
2022-11-13T17:53:58.664Z,8.04
2022-11-13T17:56:26.799Z,8.03
2022-11-13T17:58:54.518Z,8.03
2022-11-13T18:01:22.965Z,7.99
2022-11-13T18:03:50.934Z,7.95
2022-11-13T18:06:19.962Z,7.90
2022-11-13T18:08:49.573Z,7.85
2022-11-13T18:11:17.624Z,7.84
2022-11-13T18:13:46.477Z,7.81
2022-11-13T18:16:14.567Z,7.78
2022-11-13T18:18:42.491Z,7.75
2022-11-13T18:21:22.565Z,7.70
2022-11-13T18:23:51.432Z,7.66
2022-11-13T18:26:19.392Z,7.61
2022-11-13T18:28:47.260Z,7.58
2022-11-13T18:31:17.180Z,7.53
2022-11-13T18:33:44.908Z,7.46
2022-11-13T18:36:13.064Z,7.39
2022-11-13T18:38:41.017Z,7.31
2022-11-13T18:41:08.972Z,7.22
2022-11-13T18:43:37.959Z,7.14
2022-11-13T18:46:05.846Z,7.04
2022-11-13T18:48:34.133Z,6.94
2022-11-13T18:51:02.116Z,6.87
2022-11-13T18:53:30.462Z,6.82
2022-11-13T18:55:58.816Z,6.81
2022-11-13T18:58:26.656Z,6.77
2022-11-13T19:00:54.753Z,6.77
2022-11-13T19:03:22.745Z,6.75
2022-11-13T19:05:50.602Z,6.74
2022-11-13T19:08:18.637Z,6.72
2022-11-13T19:10:46.663Z,6.71
2022-11-13T19:13:15.016Z,6.69
2022-11-13T19:15:43.348Z,6.69
2022-11-13T19:18:11.682Z,6.71
2022-11-13T19:20:39.629Z,6.71
2022-11-13T19:23:09.341Z,6.70
2022-11-13T19:25:37.716Z,6.73
2022-11-13T19:28:05.695Z,6.80
2022-11-13T19:30:33.636Z,6.90
2022-11-13T19:33:01.578Z,6.99
2022-11-13T19:35:29.469Z,7.02
2022-11-13T19:37:57.744Z,7.02
2022-11-13T19:40:25.689Z,7.05
2022-11-13T19:42:54.213Z,7.08
2022-11-13T19:45:23.227Z,7.09
2022-11-13T19:47:51.098Z,7.12
2022-11-13T19:50:19.547Z,7.14
2022-11-13T19:52:47.750Z,7.11
2022-11-13T19:55:15.628Z,7.06
2022-11-13T19:57:46.009Z,7.00
2022-11-13T20:00:14.873Z,6.92
2022-11-13T20:02:43.172Z,6.82
2022-11-13T20:05:11.389Z,6.72
2022-11-13T20:07:39.331Z,6.62
2022-11-13T20:10:07.283Z,6.53
2022-11-13T20:12:35.314Z,6.45
2022-11-13T20:15:03.665Z,6.40
2022-11-13T20:17:31.563Z,6.38
2022-11-13T20:19:59.409Z,6.35
2022-11-13T20:22:27.302Z,6.33
2022-11-13T20:24:55.666Z,6.31
2022-11-13T20:27:23.885Z,6.30
2022-11-13T20:29:51.796Z,6.32
2022-11-13T20:32:19.687Z,6.34
2022-11-13T20:34:49.973Z,6.36
2022-11-13T20:37:18.039Z,6.37
2022-11-13T20:39:46.245Z,6.37
2022-11-13T20:42:14.156Z,6.33
2022-11-13T20:44:42.076Z,6.30
2022-11-13T20:47:14.316Z,6.25
2022-11-13T20:49:42.302Z,6.20
2022-11-13T20:52:11.487Z,6.14
2022-11-13T20:54:39.295Z,6.09
2022-11-13T20:57:07.257Z,6.04
2022-11-13T20:59:35.196Z,5.99
2022-11-13T21:02:03.198Z,5.95
2022-11-13T21:04:31.413Z,5.91
2022-11-13T21:06:59.499Z,5.89
2022-11-13T21:09:27.432Z,5.88
2022-11-13T21:11:56.670Z,5.85
2022-11-13T21:14:24.545Z,5.80
2022-11-13T21:16:53.012Z,5.72
2022-11-13T21:19:22.565Z,5.67
2022-11-13T21:21:50.494Z,5.63
2022-11-13T21:24:18.383Z,5.58
2022-11-13T21:26:46.279Z,5.52
2022-11-13T21:29:15.022Z,5.47
2022-11-13T21:31:43.048Z,5.40
2022-11-13T21:34:10.904Z,5.34
2022-11-13T21:36:38.930Z,5.30
2022-11-13T21:39:06.784Z,5.26
2022-11-13T21:41:34.619Z,5.22
2022-11-13T21:44:03.563Z,5.19
2022-11-13T21:46:31.416Z,5.15
2022-11-13T21:48:59.251Z,5.13
2022-11-13T21:51:27.590Z,5.08
2022-11-13T21:53:56.017Z,5.02
2022-11-13T21:56:23.837Z,4.96
2022-11-13T21:58:51.721Z,4.92
2022-11-13T22:01:19.613Z,4.89
2022-11-13T22:03:47.445Z,4.87
2022-11-13T22:06:15.753Z,4.84
2022-11-13T22:08:43.521Z,4.79
2022-11-13T22:11:11.310Z,4.74
2022-11-13T22:13:41.203Z,4.67
2022-11-13T22:16:08.846Z,4.59
2022-11-13T22:18:36.911Z,4.53
2022-11-13T22:21:04.674Z,4.48
2022-11-13T22:23:32.384Z,4.47
2022-11-13T22:26:02.264Z,4.45
2022-11-13T22:28:30.286Z,4.44
2022-11-13T22:30:58.567Z,4.41
2022-11-13T22:33:26.176Z,4.38
2022-11-13T22:35:54.243Z,4.38
2022-11-13T22:38:21.887Z,4.37
2022-11-13T22:40:49.578Z,4.37
2022-11-13T22:43:17.631Z,4.38
2022-11-13T22:45:45.389Z,4.36
2022-11-13T22:48:13.277Z,4.29
2022-11-13T22:50:41.064Z,4.25
2022-11-13T22:53:08.778Z,4.17
2022-11-13T22:55:36.866Z,4.13
2022-11-13T22:58:05.047Z,4.07
2022-11-13T23:00:32.771Z,4.05
2022-11-13T23:03:03.101Z,4.07
2022-11-13T23:05:30.833Z,4.11
2022-11-13T23:07:58.919Z,4.09
2022-11-13T23:10:26.563Z,4.05
2022-11-13T23:12:54.286Z,4.02
2022-11-13T23:15:22.038Z,3.98
2022-11-13T23:17:49.668Z,3.95
2022-11-13T23:20:18.142Z,3.95
2022-11-13T23:22:45.746Z,3.97
2022-11-13T23:25:13.419Z,3.98
2022-11-13T23:27:41.044Z,3.98
2022-11-13T23:30:08.714Z,3.97
2022-11-13T23:32:36.436Z,3.96
2022-11-13T23:35:04.132Z,3.94
2022-11-13T23:37:31.717Z,3.93
2022-11-13T23:40:00.707Z,3.91
2022-11-13T23:42:53.619Z,3.91
2022-11-13T23:45:16.225Z,3.91
2022-11-13T23:47:43.890Z,3.90
2022-11-13T23:50:12.373Z,3.90
2022-11-13T23:52:39.986Z,3.88
2022-11-13T23:55:07.608Z,3.86
2022-11-13T23:57:35.607Z,3.84
